Destrehan, Louisiana
Current Conditions -  °F | °C
As of 8:53 AM on Thursday 30 Oct 2014 (Local Time) from KMSY Reporting Station
Few Clouds Few Clouds  
Wind Chill: 65°   Ceiling: Unl
Heat Index: 65°   Visibility: 10mi
Dew Point: 46°   Wind: 23mph
Humidity: 50%   Direction: 40°NE
Pressure: 30.12"   Gusts: NA
Location:  29.95°N, 90.39°W
Report Text: KMSY 301353Z 04020KT 10SM FEW050 18/08 A3012 RMK AO2 SLP202 T01830078 $
Loading
Personal Weather Stations






























Interactive Weather Map New forecast layout! Learn more

10-Day Weather Forecast

Advertisements
Track Severe Weather on mobile